Red Bluff Municipal Airport
KRBL : now visible

Airfield :











YOU CAN JOIN US ON...

 
LOGIN :

Register | Disclaimer

   EN    FR    IT 

 









Legend :    VFR   Marginal VFR   IFR   Intensive IFR   Very Intensive IFR
Visi :
Ceiling :
>= 8 km
>= 3000ft
5 to 8 km
1000 to 3000 ft
1500m to 5 km
500 to 1000 ft
800 to 1500m
200 to 500 ft
< 800m
< 200 ft
Symbols :   Thunderstorms  Fog  Heavy snow  Heavy precipitations  Wind > 20 kt






- Airport Elevation : 352 ft


KRBL - Red Bluff Municipal

CURRENT METAR :
  • 110615Z AUTO 14004KT 5SM -RA BR BKN018 OVC065 10/09 A3025 RMK AO2 P0000 T01000089

EXPIRED METARs :
  • 110554Z AUTO 13004KT 4SM -RA BR FEW043 OVC070 10/09 A3025 RMK AO2 SLP242 P0000 60001 T01000089 10122 20100 53012
  • 110534Z AUTO 15003KT 4SM -RA BR SCT024 BKN045 OVC070 10/09 A3024 RMK AO2 P0000 T01000089
  • 110511Z AUTO 13005KT 4SM -RA BR BKN029 BKN041 OVC070 10/09 A3024 RMK AO2 P0000 T01000089
  • 110454Z AUTO 14005KT 4SM -RA BR BKN030 BKN044 OVC060 10/09 A3024 RMK AO2 RAB28 SLP239 P0001 T01000089
  • 110354Z AUTO 00000KT 10SM SCT033 BKN042 OVC075 11/09 A3022 RMK AO2 SLP234 T01060089

TAF KRBL
Valid from the 11 at 06:00 until the 12 at 06:00 UTC


110528Z 1106/1206 14005KT 6SM BR BKN029 BKN040 OVC070
FM110900 28002KT 6SM BR VCSH OVC025
FM112300 17007KT 4SM -RA BR OVC015



MET'MAP, your aeronautical weather chart ! - Copyright ORBIFLY December 2007 - Disclaimer

ORBIFLY MET'MAP TEAM :

Programming & Development : Alexandra Zaïnal
Concept & original design : Baudouin d'Aumeries
Assistance for programming : Marc-Olivier Méhu
Technical & hardware support : Manuel Goepfert

Contact : metmap@orbifly.com




SOURCES & CREDITS :

   NOAA       Earth
Advisory